Main page
METAR-TAF:

METAR-TAF

Airports :

Václav Havel Airport Prague

Prague, Czech Republic

latitude: 50-06N, longitude: 014-15E, elevation: 365 m

Current weather observation

The report was made 30 minutes ago, at 06:30 UTC
Wind 9 kt from the West/Southwest
Temperature 19°C
Humidity 68%
Pressure 1023 hPa
Visibility 10 km or more
no clouds below 1500 m and no cumulonimbus

METAR: LKPR 190630Z 25009KT CAVOK 19/13 Q1023 NOSIG

Time: 09:00 (07:00 UTC)

Forecast

The report was made 2 hours and 0 minutes ago, at 05:00 UTC
Forecast valid from 19 at 06 UTC to 20 at 12 UTC
Wind 8 kt from the North/Northwest
Visibility 10 km or more
no clouds below 1500 m and no cumulonimbus
Temporary
from 19 at 06 UTC to 19 at 09 UTC
Wind 6 kt from the West/Southwest
Becoming
from 19 at 22 UTC to 20 at 00 UTC
Wind 2 kt from variable directions
Temporary
from 20 at 06 UTC to 20 at 08 UTC
Wind 5 kt from the West/Northwest

TAF: LKPR 190500Z 1906/2012 33008KT CAVOK TEMPO 1906/1909 24006KT BECMG 1922/2000 VRB02KT TEMPO 2006/2008 30005KT

Weather observations and forecasts of more than 4000 airports (METAR and TAF reports).

The available stations are represented by yellow and red dots on the map.

Hover mouse over dot to see the name of the station.

Then click to see weather observations and forecasts.

To change the map : click on the green buttons with a black cross to zoom in, on the green button with a dash to zoom out, or on the green arrows for adjacent maps.


METAR-TAF: